Kualapuu, HI (96757)

11:07 AM HST on July 13, 2014 (GMT -1000)
Molokai (PHMK) Elev 449 ft | 21.15 °N, 157.10 °W | Change Station

Current weather conditions updated 13 minutes ago

Clear
Clear
85 °F
Feels Like 91 °F
N
14
Wind Variable Wind from NE
Gusts 23 mph

Today is forecast to be nearly the same temperature as yesterday.

Today
High -- | Low -- °F
--% Chance of Precip.
Yesterday
High -- | Low -- °F
Precip. -- in
5:54 AM 7:13 PM
Full, 97% visible
Pressure 30.04 in
Visibility 10.0 miles
Clouds Clear
Heat Index 91 °F
Dew Point 72 °F
Humidity 65%
Rainfall 0.00 in
Snow Depth Not available.
UV 11 out of 12
Pollen Not available.
Air Quality Not available.
Flu Activity Sporadic
METAR PHMK 132054Z 04012G20KT 10SM CLR 29/22 A3004 RMK AO2 SLP173 T02940222 58001 $

More Conditions Fewer Conditions

Pressure 30.04 in
Visibility 10.0 miles
Clouds Clear
Heat Index 91 °F
Dew Point 72 °F
Humidity 65%
Rainfall 0.00 in
Snow Depth Not available.
UV 11 out of 12
Pollen Not available.
Air Quality Not available.
Flu Activity Sporadic
METAR PHMK 132054Z 04012G20KT 10SM CLR 29/22 A3004 RMK AO2 SLP173 T02940222 58001 $

More Conditions Fewer Conditions

10-Day Weather Forecast

Almanac

Astronomy

Jul. 13, 2014 Rise Set
Actual Time 5:54 AM HST 7:13 PM HST
Civil Twilight 5:30 AM HST 7:37 PM HST
Nautical Twilight 5:00 AM HST 8:06 PM HST
Astronomical Twilight 4:30 AM HST 8:36 PM HST
Moon 8:31 PM HST 7:20 AM HST
Length of Visible Light 14h 07m
Length of Day
13h 18m
Tomorrow will be 0m 35s shorter.
Full, 97% of the Moon is Illuminated
Today
Full
Jul 18
Last Quarter
Jul 26
New
Aug 3
First Quarter
Aug 10
Full

Today's Extremes

State Highs State Lows

Community

WunderPhotos

Upload Photos

1,733,393 photos uploaded!

Nearby

Snow Depth

Station Depth Elevation
No new snow has been reported.

Earthquake Activity

City Distance Mag. Time & Date
No recent earthquake activity has been reported nearby.
Minimum magnitude displayed is 2.5.

Coastal Water Temperatures

Place Temperature
No Stations Reporting

Nearby Weather Stations

There are no personal weather stations in this area.